createdAt,value
2019-03-23T00:00:38.013Z,76.27
2019-03-23T00:03:07.300Z,62.93
2019-03-23T00:05:36.702Z,60.33
2019-03-23T00:08:06.408Z,71.97
2019-03-23T00:10:36.507Z,60.67
2019-03-23T00:13:08.795Z,64.10
2019-03-23T00:15:38.048Z,69.60
2019-03-23T00:18:07.331Z,63.87
2019-03-23T00:20:37.149Z,67.27
2019-03-23T00:23:06.901Z,62.07
2019-03-23T00:25:36.361Z,65.80
2019-03-23T00:28:05.822Z,77.13
2019-03-23T00:30:35.097Z,62.17
2019-03-23T00:33:04.768Z,72.70
2019-03-23T00:35:34.008Z,68.07
2019-03-23T00:38:03.257Z,62.87
2019-03-23T00:40:32.585Z,65.83
2019-03-23T00:43:01.931Z,56.67
2019-03-23T00:45:31.617Z,54.53
2019-03-23T00:48:00.820Z,58.73
2019-03-23T00:50:30.147Z,63.33
2019-03-23T00:52:59.367Z,54.70
2019-03-23T00:55:28.603Z,58.73
2019-03-23T00:57:58.209Z,61.43
2019-03-23T01:00:27.659Z,59.23
2019-03-23T01:02:57.080Z,59.57
2019-03-23T01:05:26.280Z,50.20
2019-03-23T01:07:55.609Z,60.83
2019-03-23T01:10:25.427Z,62.67
2019-03-23T01:12:55.030Z,64.00
2019-03-23T01:15:24.296Z,68.67
2019-03-23T01:17:53.690Z,59.67
2019-03-23T01:20:23.245Z,65.93
2019-03-23T01:22:52.488Z,66.17
2019-03-23T01:25:21.726Z,79.47
2019-03-23T01:27:51.395Z,75.00
2019-03-23T01:30:20.962Z,74.90
2019-03-23T01:32:50.199Z,84.83
2019-03-23T01:35:19.405Z,65.97
2019-03-23T01:37:48.622Z,68.47
2019-03-23T01:40:17.865Z,63.63
2019-03-23T01:42:47.191Z,73.97
2019-03-23T01:45:17.478Z,96.03
2019-03-23T01:47:46.703Z,73.67
2019-03-23T01:50:16.596Z,59.60
2019-03-23T01:52:45.812Z,80.83
2019-03-23T01:55:15.046Z,110.47
2019-03-23T01:57:44.300Z,95.43
2019-03-23T02:00:14.387Z,108.40
2019-03-23T02:02:43.806Z,202.33
2019-03-23T02:05:13.457Z,147.23
2019-03-23T02:07:42.754Z,133.60
2019-03-23T02:10:12.389Z,142.10
2019-03-23T02:12:41.982Z,138.77
2019-03-23T02:15:11.839Z,156.87
2019-03-23T02:17:41.148Z,111.90
2019-03-23T02:20:10.953Z,143.03
2019-03-23T02:22:40.506Z,103.17
2019-03-23T02:25:10.016Z,73.83
2019-03-23T02:27:39.603Z,128.03
2019-03-23T02:30:09.736Z,113.87
2019-03-23T02:32:39.004Z,95.70
2019-03-23T02:35:09.113Z,104.43
2019-03-23T02:37:38.640Z,60.70
2019-03-23T02:40:08.486Z,68.50
2019-03-23T02:42:38.267Z,106.27
2019-03-23T02:45:08.815Z,101.43
2019-03-23T02:47:38.108Z,72.90
2019-03-23T02:50:07.924Z,91.83
2019-03-23T02:52:37.349Z,110.83
2019-03-23T02:55:07.180Z,91.43
2019-03-23T02:57:36.517Z,107.73
2019-03-23T03:00:07.797Z,78.83
2019-03-23T03:02:38.351Z,84.03
2019-03-23T03:05:09.092Z,96.10
2019-03-23T03:07:42.544Z,91.80
2019-03-23T03:10:41.705Z,82.90
2019-03-23T03:13:11.151Z,93.00
2019-03-23T03:15:40.833Z,106.03
2019-03-23T03:18:10.509Z,72.17
2019-03-23T03:20:39.791Z,85.40
2019-03-23T03:23:09.041Z,95.40
2019-03-23T03:25:38.685Z,166.73
2019-03-23T03:28:08.344Z,113.00
2019-03-23T03:30:38.217Z,127.83
2019-03-23T03:33:07.485Z,94.03
2019-03-23T03:35:36.784Z,147.03
2019-03-23T03:38:06.024Z,153.50
2019-03-23T03:40:35.621Z,91.57
2019-03-23T03:43:05.081Z,133.10
2019-03-23T03:45:34.303Z,80.50
2019-03-23T03:48:03.715Z,169.53
2019-03-23T03:50:32.930Z,113.00
2019-03-23T03:53:02.516Z,115.10
2019-03-23T03:55:31.901Z,116.53
2019-03-23T03:58:01.438Z,128.83
2019-03-23T04:00:31.069Z,84.87
2019-03-23T04:03:01.022Z,97.13
2019-03-23T04:05:30.311Z,83.13
2019-03-23T04:08:10.589Z,84.77
2019-03-23T04:10:30.497Z,151.37
2019-03-23T04:13:00.517Z,105.47
2019-03-23T04:15:30.027Z,114.43
2019-03-23T04:17:59.635Z,103.60
2019-03-23T04:20:28.869Z,70.30
2019-03-23T04:22:58.207Z,113.27
2019-03-23T04:25:27.448Z,77.03
2019-03-23T04:27:56.729Z,67.07
2019-03-23T04:30:26.977Z,122.10
2019-03-23T04:32:56.430Z,88.70
2019-03-23T04:35:26.525Z,78.37
2019-03-23T04:37:55.763Z,86.43
2019-03-23T04:40:24.958Z,151.93
2019-03-23T04:42:54.210Z,78.40
2019-03-23T04:45:23.675Z,120.27
2019-03-23T04:47:53.370Z,95.50
2019-03-23T04:50:23.005Z,68.47
2019-03-23T04:52:52.907Z,77.40
2019-03-23T04:55:22.417Z,116.00
2019-03-23T04:57:52.219Z,175.03
2019-03-23T05:00:21.602Z,109.47
2019-03-23T05:02:50.822Z,125.67
2019-03-23T05:05:20.451Z,111.17
2019-03-23T05:07:49.731Z,150.97
2019-03-23T05:10:19.353Z,80.07
2019-03-23T05:12:48.892Z,94.40
2019-03-23T05:15:18.416Z,217.20
2019-03-23T05:17:48.281Z,200.13
2019-03-23T05:20:28.886Z,154.33
2019-03-23T05:23:06.193Z,125.67
2019-03-23T05:25:35.786Z,173.53
2019-03-23T05:28:06.190Z,173.57
2019-03-23T05:30:35.414Z,130.87
2019-03-23T05:33:04.740Z,119.13
2019-03-23T05:35:36.286Z,69.30
2019-03-23T05:38:06.465Z,188.13
2019-03-23T05:40:36.637Z,168.67
2019-03-23T05:43:07.340Z,147.27
2019-03-23T05:45:36.622Z,84.77
2019-03-23T05:48:17.047Z,142.63
2019-03-23T05:50:47.478Z,121.60
2019-03-23T05:53:18.357Z,145.00
2019-03-23T05:55:48.425Z,61.70
2019-03-23T05:58:18.063Z,85.60
2019-03-23T06:00:47.927Z,68.47
2019-03-23T06:03:19.654Z,62.23
2019-03-23T06:05:49.366Z,116.50
2019-03-23T06:08:18.950Z,106.87
2019-03-23T06:10:48.772Z,109.40
2019-03-23T06:13:18.375Z,67.03
2019-03-23T06:15:48.645Z,84.60
2019-03-23T06:18:18.085Z,86.07
2019-03-23T06:20:47.318Z,76.13
2019-03-23T06:23:17.218Z,107.13
2019-03-23T06:25:46.922Z,81.63
2019-03-23T06:28:16.275Z,46.70
2019-03-23T06:30:46.922Z,77.30
2019-03-23T06:33:21.747Z,45.30
2019-03-23T06:35:52.050Z,46.40
2019-03-23T06:38:21.308Z,33.73
2019-03-23T06:40:50.559Z,34.73
2019-03-23T06:43:20.068Z,32.20
2019-03-23T06:45:49.246Z,29.53
2019-03-23T06:48:18.704Z,32.40
2019-03-23T06:50:47.983Z,30.80
2019-03-23T06:53:17.478Z,33.37
2019-03-23T06:55:46.791Z,26.77
2019-03-23T06:58:16.088Z,25.97
2019-03-23T07:00:45.367Z,26.47
2019-03-23T07:03:14.878Z,23.47
2019-03-23T07:05:44.262Z,26.87
2019-03-23T07:08:13.566Z,22.57
2019-03-23T07:10:42.911Z,22.03
2019-03-23T07:13:31.155Z,24.27
2019-03-23T07:16:00.425Z,23.73
2019-03-23T07:18:30.018Z,22.07
2019-03-23T07:20:59.753Z,21.40
2019-03-23T07:23:28.995Z,26.10
2019-03-23T07:25:58.226Z,22.30
2019-03-23T07:28:27.511Z,24.47
2019-03-23T07:30:56.963Z,26.87
2019-03-23T07:33:26.318Z,25.23
2019-03-23T07:35:55.533Z,23.40
2019-03-23T07:38:25.006Z,23.70
2019-03-23T07:40:54.518Z,20.77
2019-03-23T07:43:24.516Z,23.93
2019-03-23T07:45:54.358Z,27.60
2019-03-23T07:48:25.015Z,29.80
2019-03-23T07:50:54.449Z,23.97
2019-03-23T07:53:23.681Z,23.38
2019-03-23T07:55:54.533Z,28.40
2019-03-23T07:58:23.754Z,29.20
2019-03-23T08:00:53.332Z,26.97
2019-03-23T08:03:22.573Z,26.57
2019-03-23T08:05:51.847Z,28.10
2019-03-23T08:08:21.376Z,25.27
2019-03-23T08:10:50.610Z,32.13
2019-03-23T08:13:19.978Z,28.30
2019-03-23T08:15:49.302Z,31.12
2019-03-23T08:18:18.563Z,28.73
2019-03-23T08:20:48.085Z,29.37
2019-03-23T08:23:17.606Z,31.57
2019-03-23T08:25:46.810Z,29.10
2019-03-23T08:28:16.133Z,27.52
2019-03-23T08:30:45.422Z,29.77
2019-03-23T08:33:14.934Z,34.92
2019-03-23T08:35:44.200Z,28.80
2019-03-23T08:38:13.877Z,28.55
2019-03-23T08:40:43.204Z,27.32
2019-03-23T08:43:12.529Z,33.48
2019-03-23T08:45:41.719Z,30.57
2019-03-23T08:48:12.079Z,30.20
2019-03-23T08:50:41.327Z,32.65
2019-03-23T08:53:10.820Z,31.42
2019-03-23T08:55:40.462Z,28.90
2019-03-23T08:58:09.688Z,32.35
2019-03-23T09:00:41.067Z,33.42
2019-03-23T09:03:10.295Z,31.35
2019-03-23T09:05:39.512Z,31.02
2019-03-23T09:08:08.729Z,31.05
2019-03-23T09:10:38.273Z,27.00
2019-03-23T09:13:07.464Z,32.75
2019-03-23T09:15:36.691Z,37.48
2019-03-23T09:18:05.966Z,34.73
2019-03-23T09:20:35.489Z,31.23
2019-03-23T09:23:04.856Z,31.10
2019-03-23T09:25:34.179Z,30.35
2019-03-23T09:28:03.374Z,33.42
2019-03-23T09:30:32.575Z,30.00
2019-03-23T09:33:02.034Z,34.08
2019-03-23T09:35:31.601Z,28.87
2019-03-23T09:38:01.210Z,32.48
2019-03-23T09:40:30.427Z,25.70
2019-03-23T09:42:59.893Z,31.73
2019-03-23T09:45:29.230Z,34.73
2019-03-23T09:47:58.430Z,36.25
2019-03-23T09:50:27.673Z,34.00
2019-03-23T09:53:15.946Z,31.33
2019-03-23T09:55:45.546Z,25.92
2019-03-23T09:58:22.945Z,29.37
2019-03-23T10:00:52.251Z,29.02
2019-03-23T10:03:21.463Z,32.98
2019-03-23T10:05:50.694Z,28.80
2019-03-23T10:08:19.959Z,30.68
2019-03-23T10:10:49.164Z,29.65
2019-03-23T10:13:19.003Z,30.20
2019-03-23T10:15:48.275Z,31.65
2019-03-23T10:18:17.470Z,29.25
2019-03-23T10:20:46.713Z,31.82
2019-03-23T10:23:15.981Z,34.10
2019-03-23T10:25:45.279Z,27.93
2019-03-23T10:28:14.510Z,28.67
2019-03-23T10:30:43.750Z,29.02
2019-03-23T10:33:12.963Z,32.15
2019-03-23T10:35:42.196Z,27.52
2019-03-23T10:38:11.867Z,29.52
2019-03-23T10:40:42.933Z,30.23
2019-03-23T10:43:12.140Z,26.77
2019-03-23T10:45:44.452Z,29.92
2019-03-23T10:48:14.237Z,29.67
2019-03-23T10:50:43.451Z,31.95
2019-03-23T10:53:15.624Z,26.80
2019-03-23T10:55:44.220Z,28.67
2019-03-23T10:58:13.472Z,24.52
2019-03-23T11:00:42.995Z,30.27
2019-03-23T11:03:13.004Z,27.75
2019-03-23T11:05:42.295Z,26.02
2019-03-23T11:08:11.641Z,29.37
2019-03-23T11:11:00.324Z,26.20
2019-03-23T11:13:29.508Z,29.98
2019-03-23T11:15:58.782Z,27.87
2019-03-23T11:18:28.329Z,32.63
2019-03-23T11:21:04.562Z,26.62
2019-03-23T11:23:34.745Z,32.25
2019-03-23T11:26:04.269Z,35.08
2019-03-23T11:28:33.860Z,38.10
2019-03-23T11:31:03.360Z,32.13
2019-03-23T11:33:32.863Z,35.35
2019-03-23T11:36:02.159Z,37.78
2019-03-23T11:38:31.693Z,33.00
2019-03-23T11:41:00.986Z,38.48
2019-03-23T11:43:30.193Z,39.03
2019-03-23T11:45:59.733Z,38.45
2019-03-23T11:48:29.464Z,38.63
2019-03-23T11:50:58.691Z,38.60
2019-03-23T11:53:27.921Z,39.27
2019-03-23T11:55:57.120Z,43.28
2019-03-23T11:58:26.342Z,42.05
2019-03-23T12:00:55.570Z,36.73
2019-03-23T12:03:24.879Z,40.15
2019-03-23T12:05:54.095Z,42.07
2019-03-23T12:08:23.340Z,39.90
2019-03-23T12:11:02.525Z,42.43
2019-03-23T12:13:23.866Z,52.00
2019-03-23T12:15:53.402Z,43.90
2019-03-23T12:18:22.938Z,42.55
2019-03-23T12:20:52.184Z,42.03
2019-03-23T12:23:21.498Z,46.60
2019-03-23T12:25:50.710Z,39.57
2019-03-23T12:28:20.041Z,41.13
2019-03-23T12:30:49.302Z,42.80
2019-03-23T12:33:18.565Z,40.60
2019-03-23T12:35:47.776Z,36.93
2019-03-23T12:38:16.994Z,35.63
2019-03-23T12:40:46.392Z,41.07
2019-03-23T12:43:16.007Z,39.10
2019-03-23T12:45:45.288Z,37.03
2019-03-23T12:48:14.550Z,43.80
2019-03-23T12:50:43.764Z,41.60
2019-03-23T12:53:13.092Z,36.50
2019-03-23T12:55:42.271Z,41.17
2019-03-23T12:58:11.481Z,42.20
2019-03-23T13:00:41.228Z,43.90
2019-03-23T13:03:10.460Z,39.07
2019-03-23T13:05:40.302Z,42.53
2019-03-23T13:08:09.881Z,44.00
2019-03-23T13:10:39.583Z,47.47
2019-03-23T13:13:09.408Z,43.63
2019-03-23T13:15:38.915Z,52.23
2019-03-23T13:18:08.495Z,51.70
2019-03-23T13:20:37.723Z,49.60
2019-03-23T13:23:07.314Z,46.67
2019-03-23T13:25:36.526Z,54.33
2019-03-23T13:28:05.908Z,53.90
2019-03-23T13:30:35.417Z,53.47
2019-03-23T13:33:04.645Z,44.77
2019-03-23T13:35:34.226Z,50.07
2019-03-23T13:38:03.463Z,55.10
2019-03-23T13:40:33.038Z,45.77
2019-03-23T13:43:03.634Z,58.23
2019-03-23T13:45:42.278Z,54.27
2019-03-23T13:48:04.062Z,47.27
2019-03-23T13:50:33.323Z,45.43
2019-03-23T13:53:02.607Z,51.07
2019-03-23T13:55:33.551Z,45.40
2019-03-23T13:58:10.220Z,44.23
2019-03-23T14:00:39.528Z,48.77
2019-03-23T14:03:09.038Z,44.10
2019-03-23T14:05:38.262Z,42.73
2019-03-23T14:08:07.998Z,45.47
2019-03-23T14:10:37.240Z,40.27
2019-03-23T14:13:06.887Z,41.77
2019-03-23T14:15:36.201Z,34.20
2019-03-23T14:18:05.518Z,36.83
2019-03-23T14:20:35.389Z,39.10
2019-03-23T14:23:05.102Z,42.20
2019-03-23T14:25:34.390Z,32.70
2019-03-23T14:28:03.706Z,32.77
2019-03-23T14:30:32.975Z,33.93
2019-03-23T14:33:02.267Z,32.77
2019-03-23T14:35:31.624Z,32.50
2019-03-23T14:38:01.641Z,28.43
2019-03-23T14:40:30.878Z,23.37
2019-03-23T14:43:00.527Z,24.03
2019-03-23T14:45:29.768Z,24.53
2019-03-23T14:47:59.325Z,27.00
2019-03-23T14:50:28.569Z,28.97
2019-03-23T14:52:57.783Z,27.30
2019-03-23T14:55:27.047Z,29.57
2019-03-23T14:57:56.538Z,28.47
2019-03-23T15:00:33.370Z,27.73
2019-03-23T15:03:02.900Z,30.63
2019-03-23T15:05:32.148Z,34.20
2019-03-23T15:08:01.499Z,33.63
2019-03-23T15:10:30.743Z,32.53
2019-03-23T15:13:01.372Z,24.53
2019-03-23T15:15:30.687Z,32.27
2019-03-23T15:18:00.364Z,30.57
2019-03-23T15:20:29.663Z,32.13
2019-03-23T15:22:59.385Z,28.97
2019-03-23T15:25:28.611Z,29.10
2019-03-23T15:27:58.175Z,23.93
2019-03-23T15:30:27.399Z,23.53
2019-03-23T15:32:56.631Z,30.50
2019-03-23T15:35:25.842Z,31.43
2019-03-23T15:37:55.050Z,25.70
2019-03-23T15:40:24.255Z,25.50
2019-03-23T15:42:54.291Z,28.77
2019-03-23T15:45:23.490Z,24.93
2019-03-23T15:47:52.800Z,26.87
2019-03-23T15:50:22.394Z,22.33
2019-03-23T15:52:51.583Z,26.23
2019-03-23T15:55:20.797Z,24.33
2019-03-23T15:57:50.059Z,20.90
2019-03-23T16:00:19.342Z,21.70
2019-03-23T16:02:48.539Z,22.03
2019-03-23T16:05:17.771Z,18.00
2019-03-23T16:07:47.270Z,22.87
2019-03-23T16:10:17.011Z,19.47
2019-03-23T16:12:46.207Z,17.37
2019-03-23T16:15:15.781Z,17.43
2019-03-23T16:17:45.032Z,25.50
2019-03-23T16:20:14.558Z,18.53
2019-03-23T16:22:43.974Z,20.93
2019-03-23T16:25:13.784Z,16.87
2019-03-23T16:27:42.997Z,17.43
2019-03-23T16:30:13.166Z,16.30
2019-03-23T16:32:42.421Z,13.20
2019-03-23T16:35:11.936Z,13.23
2019-03-23T16:37:41.461Z,12.57
2019-03-23T16:40:11.015Z,13.60
2019-03-23T16:42:45.150Z,14.90
2019-03-23T16:45:12.079Z,11.83
2019-03-23T16:47:41.346Z,12.37
2019-03-23T16:50:11.450Z,12.23
2019-03-23T16:52:40.677Z,14.53
2019-03-23T16:55:10.547Z,14.77
2019-03-23T16:57:40.067Z,12.57
2019-03-23T17:00:10.344Z,14.17
2019-03-23T17:02:39.993Z,13.17
2019-03-23T17:05:10.435Z,11.83
2019-03-23T17:07:39.780Z,8.40
2019-03-23T17:10:09.786Z,13.57
2019-03-23T17:12:38.973Z,11.53
2019-03-23T17:15:09.094Z,14.13
2019-03-23T17:17:38.916Z,11.53
2019-03-23T17:20:08.775Z,12.57
2019-03-23T17:22:38.015Z,13.60
2019-03-23T17:25:07.666Z,12.33
2019-03-23T17:27:36.917Z,15.03
2019-03-23T17:30:07.640Z,15.33
2019-03-23T17:32:37.326Z,10.20
2019-03-23T17:35:07.559Z,12.10
2019-03-23T17:37:37.115Z,10.90
2019-03-23T17:40:06.673Z,13.53
2019-03-23T17:42:36.138Z,10.13
2019-03-23T17:45:06.104Z,16.87
2019-03-23T17:47:35.697Z,17.67
2019-03-23T17:50:05.803Z,11.40
2019-03-23T17:52:35.073Z,12.13
2019-03-23T17:55:04.740Z,14.93
2019-03-23T17:57:33.956Z,9.57
2019-03-23T18:00:03.625Z,10.87
2019-03-23T18:02:32.946Z,13.00
2019-03-23T18:05:02.173Z,10.83
2019-03-23T18:07:31.392Z,11.17
2019-03-23T18:10:00.618Z,12.17
2019-03-23T18:12:29.926Z,11.07
2019-03-23T18:14:59.151Z,10.03
2019-03-23T18:17:28.368Z,12.70
2019-03-23T18:19:57.743Z,10.07
2019-03-23T18:22:27.073Z,10.17
2019-03-23T18:24:56.566Z,12.07
2019-03-23T18:27:25.855Z,14.30
2019-03-23T18:29:55.141Z,14.83
2019-03-23T18:32:24.351Z,11.87
2019-03-23T18:34:53.551Z,9.13
2019-03-23T18:37:22.755Z,7.90
2019-03-23T18:39:52.492Z,11.40
2019-03-23T18:42:21.976Z,12.80
2019-03-23T18:44:51.470Z,11.37
2019-03-23T18:47:20.995Z,9.63
2019-03-23T18:49:50.230Z,10.20
2019-03-23T18:52:19.454Z,12.30
2019-03-23T18:54:49.043Z,13.97
2019-03-23T18:57:18.267Z,11.27
2019-03-23T18:59:47.550Z,11.60
2019-03-23T19:02:17.035Z,14.13
2019-03-23T19:04:46.236Z,11.63
2019-03-23T19:07:15.917Z,12.93
2019-03-23T19:09:45.119Z,16.70
2019-03-23T19:12:14.350Z,15.90
2019-03-23T19:14:43.973Z,16.40
2019-03-23T19:17:13.261Z,15.90
2019-03-23T19:19:42.458Z,14.77
2019-03-23T19:22:12.530Z,14.50
2019-03-23T19:24:41.728Z,14.83
2019-03-23T19:27:10.936Z,17.27
2019-03-23T19:29:40.135Z,19.90
2019-03-23T19:32:09.507Z,17.67
2019-03-23T19:34:38.831Z,16.63
2019-03-23T19:37:08.643Z,15.73
2019-03-23T19:39:37.876Z,20.03
2019-03-23T19:42:07.065Z,17.70
2019-03-23T19:44:36.260Z,17.20
2019-03-23T19:47:05.749Z,21.87
2019-03-23T19:49:34.986Z,15.67
2019-03-23T19:52:04.763Z,16.43
2019-03-23T19:54:34.041Z,22.00
2019-03-23T19:57:03.558Z,17.67
2019-03-23T19:59:33.075Z,19.07
2019-03-23T20:02:02.278Z,20.57
2019-03-23T20:04:31.487Z,19.83
2019-03-23T20:07:01.107Z,22.97
2019-03-23T20:09:30.403Z,20.27
2019-03-23T20:11:59.610Z,22.37
2019-03-23T20:14:30.002Z,25.33
2019-03-23T20:16:59.515Z,23.37
2019-03-23T20:19:29.068Z,20.43
2019-03-23T20:21:58.266Z,26.73
2019-03-23T20:24:27.731Z,19.00
2019-03-23T20:26:57.237Z,28.43
2019-03-23T20:29:26.509Z,22.63
2019-03-23T20:31:55.753Z,23.30
2019-03-23T20:34:24.942Z,20.73
2019-03-23T20:36:54.199Z,24.40
2019-03-23T20:39:23.458Z,27.50
2019-03-23T20:41:52.647Z,19.27
2019-03-23T20:44:21.889Z,35.77
2019-03-23T20:46:51.203Z,22.17
2019-03-23T20:49:21.089Z,25.67
2019-03-23T20:51:51.386Z,20.60
2019-03-23T20:54:20.791Z,21.30
2019-03-23T20:56:50.254Z,20.37
2019-03-23T20:59:19.506Z,23.03
2019-03-23T21:01:49.208Z,21.73
2019-03-23T21:04:18.509Z,19.77
2019-03-23T21:06:47.794Z,19.57
2019-03-23T21:09:17.007Z,23.37
2019-03-23T21:11:46.239Z,28.93
2019-03-23T21:14:20.267Z,21.67
2019-03-23T21:16:46.824Z,19.10
2019-03-23T21:19:16.357Z,18.83
2019-03-23T21:21:46.254Z,22.93
2019-03-23T21:24:15.523Z,20.67
2019-03-23T21:26:44.725Z,22.00
2019-03-23T21:29:14.342Z,21.00
2019-03-23T21:31:43.579Z,24.73
2019-03-23T21:34:12.757Z,22.90
2019-03-23T21:36:42.149Z,22.07
2019-03-23T21:39:11.668Z,23.20
2019-03-23T21:41:41.215Z,22.83
2019-03-23T21:44:10.438Z,33.53
2019-03-23T21:46:39.680Z,21.80
2019-03-23T21:49:09.303Z,25.13
2019-03-23T21:51:38.585Z,25.03
2019-03-23T21:56:32.507Z,27.20
2019-03-23T21:59:02.359Z,35.93
2019-03-23T22:01:31.863Z,28.13
2019-03-23T22:04:01.374Z,32.40
2019-03-23T22:06:30.557Z,26.80
2019-03-23T22:08:59.758Z,33.87
2019-03-23T22:11:28.970Z,31.20
2019-03-23T22:13:59.206Z,35.37
2019-03-23T22:16:28.551Z,32.77
2019-03-23T22:18:57.738Z,30.40
2019-03-23T22:21:26.947Z,29.83
2019-03-23T22:23:56.128Z,32.97
2019-03-23T22:26:25.335Z,38.77
2019-03-23T22:28:54.763Z,30.70
2019-03-23T22:31:24.018Z,32.93
2019-03-23T22:33:53.617Z,29.77
2019-03-23T22:36:23.126Z,36.37
2019-03-23T22:38:52.350Z,28.73
2019-03-23T22:41:21.575Z,31.87
2019-03-23T22:43:50.844Z,33.27
2019-03-23T22:46:20.195Z,31.07
2019-03-23T22:48:49.413Z,30.57
2019-03-23T22:51:19.048Z,36.73
2019-03-23T22:53:48.306Z,38.63
2019-03-23T22:56:17.940Z,31.30
2019-03-23T22:58:47.458Z,30.53
2019-03-23T23:01:16.773Z,33.23
2019-03-23T23:03:46.006Z,28.73
2019-03-23T23:06:15.259Z,41.47
2019-03-23T23:08:44.481Z,30.20
2019-03-23T23:11:13.873Z,33.83
2019-03-23T23:13:43.122Z,30.33
2019-03-23T23:16:12.353Z,32.77
2019-03-23T23:18:41.662Z,29.23
2019-03-23T23:21:11.129Z,28.33
2019-03-23T23:23:40.349Z,29.13
2019-03-23T23:26:09.680Z,22.17
2019-03-23T23:28:38.943Z,22.60
2019-03-23T23:31:08.499Z,24.10
2019-03-23T23:33:37.737Z,20.80
2019-03-23T23:36:07.186Z,21.63
2019-03-23T23:38:36.444Z,20.07
2019-03-23T23:41:05.912Z,20.27
2019-03-23T23:43:35.221Z,27.50
2019-03-23T23:46:04.429Z,27.43
2019-03-23T23:48:33.742Z,28.40
2019-03-23T23:51:03.011Z,28.80
2019-03-23T23:53:32.433Z,22.27
2019-03-23T23:56:01.673Z,19.83
